map of RZR home
RZR - Airport
Location
City:  Ramsar, Mazandaran, Iran
ICAO:OINR
IATA:RZR

Details
Type:Airport (Aerodrome, Airfield)
Latitude:3654'36"N (36.909908)
Longitude:5040'47"E (50.679589)
Datum:WGS 1984
Elevation:-70 ft (-20 m)
Variation:5.16E (WMM2015 magnetic declination)
0.06 annual change
Runways:1
Longest:4920 × 148 ft (1500 × 45 m), paved

Time
Time Zone:UTC+3:30 (DST+4:30)
Local Time:

Weather
METAR:OINR 160300Z 18002KT 7000 -RA FEW020CB BKN025 OVC080 16/15 Q1026

Related Locations
Nearby:
Farthest:GMR: 11423 mi / 18383 km
Mangareva [Totegegie], Gambier Islands, PF

Find:

   beyond  
but within

Other Information
Maps:
NOTAMs:
Links:
Sources:

  
  • flag of Iran
  

Sectional Chart

Flight Planning
at skyvector.com

Satellite Image

Google Maps Satellite view

 

Copyright © 2004-2018 Karl L. Swartz. All rights reserved.
The Great Circle Mapper name and logo are trademarks of the Great Circle Mapper.
All other trademarks mentioned herein belong to their respective owners.
Please see credits for attibutions and further copyright information.

  Follow gcmap on Facebook Follow gcmap on Twitter Follow gcmap on Google+ GCmap on LinkedIn

hCard Microformat

Geo Microformat